createdAt,value
2018-11-06T00:02:01.722Z,8.90
2018-11-06T00:04:34.835Z,8.90
2018-11-06T00:07:02.446Z,8.80
2018-11-06T00:09:29.967Z,8.90
2018-11-06T00:11:58.232Z,8.70
2018-11-06T00:14:25.766Z,8.60
2018-11-06T00:16:53.233Z,8.50
2018-11-06T00:19:21.608Z,8.70
2018-11-06T00:21:49.140Z,8.70
2018-11-06T00:24:16.624Z,8.50
2018-11-06T00:26:44.152Z,8.50
2018-11-06T00:29:11.671Z,8.40
2018-11-06T00:31:39.107Z,8.30
2018-11-06T00:34:06.628Z,8.20
2018-11-06T00:36:34.124Z,8.40
2018-11-06T00:39:01.656Z,8.30
2018-11-06T00:41:29.132Z,8.40
2018-11-06T00:43:56.684Z,8.40
2018-11-06T00:46:24.345Z,8.40
2018-11-06T00:48:51.878Z,8.30
2018-11-06T00:51:19.611Z,8.20
2018-11-06T00:53:47.192Z,8.20
2018-11-06T00:56:14.877Z,8.30
2018-11-06T00:58:42.513Z,8.40
2018-11-06T01:01:10.012Z,8.20
2018-11-06T01:03:43.928Z,8.20
2018-11-06T01:06:11.439Z,8.30
2018-11-06T01:08:39.453Z,8.20
2018-11-06T01:11:07.002Z,8.20
2018-11-06T01:13:35.189Z,8.30
2018-11-06T01:16:02.752Z,8.20
2018-11-06T01:18:30.283Z,8.10
2018-11-06T01:20:57.898Z,8.10
2018-11-06T01:23:25.358Z,8.30
2018-11-06T01:25:53.024Z,8.10
2018-11-06T01:28:20.700Z,8.20
2018-11-06T01:30:48.172Z,8.20
2018-11-06T01:33:15.747Z,8.10
2018-11-06T01:35:43.294Z,8.10
2018-11-06T01:38:10.811Z,8.10
2018-11-06T01:40:38.430Z,8.10
2018-11-06T01:43:06.002Z,8.10
2018-11-06T01:45:33.782Z,8.00
2018-11-06T01:48:01.396Z,8.10
2018-11-06T01:50:29.103Z,8.00
2018-11-06T01:52:56.648Z,8.00
2018-11-06T01:55:24.422Z,8.10
2018-11-06T01:57:52.066Z,8.10
2018-11-06T02:00:19.571Z,8.00
2018-11-06T02:02:47.469Z,7.90
2018-11-06T02:05:16.112Z,8.00
2018-11-06T02:07:44.977Z,7.80
2018-11-06T02:10:13.439Z,7.80
2018-11-06T02:12:42.246Z,7.80
2018-11-06T02:15:09.904Z,7.90
2018-11-06T02:17:38.762Z,7.80
2018-11-06T02:20:06.696Z,7.90
2018-11-06T02:22:35.449Z,7.70
2018-11-06T02:25:02.976Z,7.90
2018-11-06T02:27:30.441Z,8.00
2018-11-06T02:29:57.896Z,7.90
2018-11-06T02:32:25.498Z,7.90
2018-11-06T02:34:52.859Z,7.90
2018-11-06T02:37:20.334Z,7.90
2018-11-06T02:39:47.829Z,7.90
2018-11-06T02:42:15.724Z,7.90
2018-11-06T02:44:43.218Z,8.00
2018-11-06T02:47:10.743Z,7.90
2018-11-06T02:49:38.699Z,7.90
2018-11-06T02:52:06.250Z,7.90
2018-11-06T02:54:33.764Z,7.90
2018-11-06T02:57:01.271Z,7.90
2018-11-06T02:59:28.800Z,8.00
2018-11-06T03:01:56.249Z,7.80
2018-11-06T03:04:23.852Z,8.00
2018-11-06T03:06:51.374Z,7.90
2018-11-06T03:09:18.978Z,7.90
2018-11-06T03:11:46.551Z,7.80
2018-11-06T03:14:14.074Z,7.90
2018-11-06T03:16:41.685Z,7.90
2018-11-06T03:19:09.151Z,7.90
2018-11-06T03:21:36.768Z,7.90
2018-11-06T03:24:04.758Z,7.80
2018-11-06T03:26:32.291Z,7.80
2018-11-06T03:28:59.796Z,8.10
2018-11-06T03:31:27.300Z,8.00
2018-11-06T03:33:54.819Z,8.00
2018-11-06T03:36:22.299Z,8.10
2018-11-06T03:38:49.795Z,8.00
2018-11-06T03:41:17.422Z,8.10
2018-11-06T03:43:46.394Z,8.10
2018-11-06T03:46:14.116Z,8.00
2018-11-06T03:48:41.636Z,8.10
2018-11-06T03:51:09.083Z,8.10
2018-11-06T03:53:36.639Z,8.00
2018-11-06T03:56:04.947Z,8.00
2018-11-06T03:58:32.491Z,7.90
2018-11-06T04:01:00.007Z,7.90
2018-11-06T04:03:27.427Z,8.00
2018-11-06T04:05:54.943Z,8.00
2018-11-06T04:08:22.429Z,7.90
2018-11-06T04:10:49.928Z,7.90
2018-11-06T04:13:17.505Z,7.90
2018-11-06T04:15:45.486Z,7.90
2018-11-06T04:18:13.088Z,7.90
2018-11-06T04:20:40.559Z,7.90
2018-11-06T04:23:08.108Z,7.90
2018-11-06T04:25:35.568Z,7.90
2018-11-06T04:28:03.047Z,8.00
2018-11-06T04:30:30.772Z,8.00
2018-11-06T04:32:58.268Z,8.10
2018-11-06T04:35:25.756Z,8.10
2018-11-06T04:37:53.312Z,8.20
2018-11-06T04:40:20.766Z,8.20
2018-11-06T04:42:48.260Z,8.20
2018-11-06T04:45:15.748Z,8.20
2018-11-06T04:47:43.290Z,8.20
2018-11-06T04:50:11.068Z,8.20
2018-11-06T04:52:38.688Z,8.10
2018-11-06T04:55:07.680Z,8.20
2018-11-06T04:57:35.512Z,8.20
2018-11-06T05:00:03.054Z,8.20
2018-11-06T05:02:31.464Z,8.20
2018-11-06T05:04:58.946Z,8.30
2018-11-06T05:07:26.451Z,8.20
2018-11-06T05:09:54.029Z,8.30
2018-11-06T05:12:21.486Z,8.30
2018-11-06T05:14:49.002Z,8.30
2018-11-06T05:17:16.475Z,8.20
2018-11-06T05:19:43.915Z,8.20
2018-11-06T05:22:11.408Z,8.10
2018-11-06T05:24:38.832Z,8.00
2018-11-06T05:27:06.277Z,8.10
2018-11-06T05:29:33.913Z,7.90
2018-11-06T05:32:01.392Z,8.10
2018-11-06T05:34:28.915Z,8.20
2018-11-06T05:36:56.443Z,8.20
2018-11-06T05:39:23.944Z,8.10
2018-11-06T05:41:51.444Z,8.30
2018-11-06T05:44:18.899Z,8.20
2018-11-06T05:46:46.354Z,8.40
2018-11-06T05:49:14.343Z,8.30
2018-11-06T05:51:41.834Z,8.20
2018-11-06T05:54:09.303Z,8.30
2018-11-06T05:56:36.871Z,8.20
2018-11-06T05:59:04.339Z,8.20
2018-11-06T06:01:31.764Z,8.20
2018-11-06T06:03:59.252Z,8.10
2018-11-06T06:06:26.760Z,8.00
2018-11-06T06:08:54.189Z,8.10
2018-11-06T06:11:23.147Z,7.90
2018-11-06T06:13:51.095Z,8.10
2018-11-06T06:16:19.239Z,8.00
2018-11-06T06:18:47.169Z,8.00
2018-11-06T06:21:15.073Z,7.90
2018-11-06T06:23:42.640Z,8.00
2018-11-06T06:26:10.176Z,8.00
2018-11-06T06:28:37.721Z,8.00
2018-11-06T06:31:05.172Z,8.00
2018-11-06T06:33:32.660Z,8.00
2018-11-06T06:36:00.124Z,8.10
2018-11-06T06:38:27.567Z,8.20
2018-11-06T06:40:55.115Z,8.10
2018-11-06T06:43:22.520Z,8.20
2018-11-06T06:45:50.073Z,8.20
2018-11-06T06:48:17.528Z,8.10
2018-11-06T06:50:45.030Z,8.10
2018-11-06T06:53:12.492Z,8.20
2018-11-06T06:55:39.971Z,8.20
2018-11-06T06:58:07.525Z,8.20
2018-11-06T07:00:34.979Z,8.10
2018-11-06T07:03:02.411Z,8.10
2018-11-06T07:05:29.903Z,8.20
2018-11-06T07:07:57.455Z,8.20
2018-11-06T07:10:24.924Z,8.20
2018-11-06T07:12:52.445Z,8.30
2018-11-06T07:15:21.221Z,8.20
2018-11-06T07:17:49.420Z,8.20
2018-11-06T07:20:19.247Z,8.20
2018-11-06T07:22:46.734Z,8.30
2018-11-06T07:25:14.668Z,8.30
2018-11-06T07:27:43.156Z,8.30
2018-11-06T07:30:13.319Z,8.30
2018-11-06T07:32:41.370Z,8.40
2018-11-06T07:35:09.585Z,8.40
2018-11-06T07:37:37.836Z,8.30
2018-11-06T07:40:05.934Z,8.40
2018-11-06T07:42:33.425Z,8.50
2018-11-06T07:45:00.908Z,8.40
2018-11-06T07:47:28.886Z,8.50
2018-11-06T07:49:56.417Z,8.50
2018-11-06T07:52:23.847Z,8.60
2018-11-06T07:54:51.348Z,8.50
2018-11-06T07:57:18.811Z,8.50
2018-11-06T07:59:46.264Z,8.60
2018-11-06T08:02:13.782Z,8.70
2018-11-06T08:04:41.312Z,8.70
2018-11-06T08:07:08.810Z,8.70
2018-11-06T08:09:36.294Z,8.70
2018-11-06T08:12:04.273Z,8.70
2018-11-06T08:14:31.792Z,8.80
2018-11-06T08:16:59.225Z,9.00
2018-11-06T08:19:26.748Z,9.10
2018-11-06T08:21:54.246Z,9.20
2018-11-06T08:24:21.699Z,9.20
2018-11-06T08:26:49.199Z,9.20
2018-11-06T08:29:16.661Z,9.50
2018-11-06T08:31:44.365Z,9.50
2018-11-06T08:34:11.831Z,9.60
2018-11-06T08:36:39.374Z,9.70
2018-11-06T08:39:08.709Z,9.80
2018-11-06T08:41:36.293Z,9.80
2018-11-06T08:44:04.168Z,9.90
2018-11-06T08:46:31.946Z,9.90
2018-11-06T08:48:59.418Z,10.10
2018-11-06T08:51:26.873Z,10.20
2018-11-06T08:53:54.402Z,10.30
2018-11-06T08:56:21.947Z,10.50
2018-11-06T08:58:49.519Z,10.60
2018-11-06T09:01:17.442Z,10.70
2018-11-06T09:03:44.888Z,10.80
2018-11-06T09:06:12.352Z,10.90
2018-11-06T09:08:39.861Z,10.80
2018-11-06T09:11:07.393Z,10.90
2018-11-06T09:13:34.892Z,10.80
2018-11-06T09:16:02.605Z,10.80
2018-11-06T09:18:30.099Z,10.80
2018-11-06T09:20:57.680Z,10.90
2018-11-06T09:23:25.212Z,10.90
2018-11-06T09:25:52.676Z,10.80
2018-11-06T09:28:20.196Z,10.80
2018-11-06T09:30:47.912Z,10.90
2018-11-06T09:33:15.325Z,10.90
2018-11-06T09:35:43.241Z,11.00
2018-11-06T09:38:10.696Z,10.90
2018-11-06T09:40:38.132Z,10.80
2018-11-06T09:43:07.590Z,11.00
2018-11-06T09:45:35.191Z,10.90
2018-11-06T09:48:02.568Z,10.80
2018-11-06T09:50:30.055Z,11.00
2018-11-06T09:52:57.511Z,11.10
2018-11-06T09:55:28.421Z,11.20
2018-11-06T09:57:58.316Z,11.30
2018-11-06T10:00:25.880Z,11.30
2018-11-06T10:02:53.330Z,11.50
2018-11-06T10:05:20.793Z,11.50
2018-11-06T10:07:48.292Z,11.70
2018-11-06T10:10:16.800Z,11.70
2018-11-06T10:12:45.318Z,11.90
2018-11-06T10:15:14.552Z,11.90
2018-11-06T10:17:43.087Z,12.10
2018-11-06T10:20:11.464Z,12.10
2018-11-06T10:22:38.917Z,12.00
2018-11-06T10:25:15.123Z,12.30
2018-11-06T10:27:42.654Z,12.20
2018-11-06T10:30:13.970Z,12.30
2018-11-06T10:32:42.046Z,12.30
2018-11-06T10:35:10.954Z,12.40
2018-11-06T10:37:40.372Z,12.30
2018-11-06T10:40:19.867Z,12.40
2018-11-06T10:42:48.793Z,12.60
2018-11-06T10:45:16.929Z,13.00
2018-11-06T10:47:46.123Z,13.90
2018-11-06T10:50:14.356Z,15.30
2018-11-06T10:52:42.199Z,16.10
2018-11-06T10:55:10.095Z,17.00
2018-11-06T10:57:39.196Z,17.00
2018-11-06T11:00:13.366Z,16.90
2018-11-06T11:02:46.504Z,16.90
2018-11-06T11:05:14.379Z,16.80
2018-11-06T11:07:41.867Z,16.20
2018-11-06T11:10:09.356Z,15.70
2018-11-06T11:12:37.711Z,15.20
2018-11-06T11:15:05.354Z,14.70
2018-11-06T11:17:32.836Z,14.60
2018-11-06T11:20:01.220Z,14.30
2018-11-06T11:22:28.694Z,14.20
2018-11-06T11:24:56.263Z,14.10
2018-11-06T11:27:23.740Z,14.00
2018-11-06T11:29:51.175Z,14.00
2018-11-06T11:32:19.796Z,13.90
2018-11-06T11:34:47.259Z,13.90
2018-11-06T11:37:15.640Z,13.90
2018-11-06T11:39:43.200Z,14.00
2018-11-06T11:42:10.700Z,14.00
2018-11-06T11:44:38.677Z,14.10
2018-11-06T11:47:06.316Z,14.20
2018-11-06T11:49:34.941Z,14.40
2018-11-06T11:52:02.398Z,14.50
2018-11-06T11:54:29.915Z,14.50
2018-11-06T11:56:57.371Z,14.60
2018-11-06T11:59:24.867Z,14.40
2018-11-06T12:01:52.317Z,14.50
2018-11-06T12:04:19.775Z,14.60
2018-11-06T12:06:47.243Z,14.60
2018-11-06T12:09:14.683Z,14.50
2018-11-06T12:11:42.264Z,14.40
2018-11-06T12:14:09.738Z,14.40
2018-11-06T12:16:37.160Z,14.40
2018-11-06T12:19:04.675Z,14.40
2018-11-06T12:21:32.140Z,14.40
2018-11-06T12:23:59.663Z,14.20
2018-11-06T12:26:27.092Z,14.20
2018-11-06T12:28:54.613Z,14.20
2018-11-06T12:31:22.159Z,14.20
2018-11-06T12:33:50.455Z,14.10
2018-11-06T12:36:17.952Z,14.00
2018-11-06T12:38:45.483Z,14.20
2018-11-06T12:41:12.960Z,14.20
2018-11-06T12:43:40.514Z,14.20
2018-11-06T12:46:08.057Z,14.10
2018-11-06T12:48:35.551Z,14.10
2018-11-06T12:51:03.244Z,14.10
2018-11-06T12:53:30.815Z,14.00
2018-11-06T12:55:58.259Z,14.30
2018-11-06T12:58:25.689Z,14.20
2018-11-06T13:00:53.168Z,14.30
2018-11-06T13:03:20.653Z,14.40
2018-11-06T13:05:48.068Z,14.40
2018-11-06T13:08:15.735Z,14.30
2018-11-06T13:10:44.253Z,14.30
2018-11-06T13:13:11.768Z,14.30
2018-11-06T13:15:39.269Z,14.30
2018-11-06T13:18:06.771Z,14.40
2018-11-06T13:20:34.251Z,14.50
2018-11-06T13:23:01.720Z,14.60
2018-11-06T13:25:29.215Z,14.60
2018-11-06T13:28:00.680Z,14.60
2018-11-06T13:30:28.308Z,14.70
2018-11-06T13:32:55.803Z,14.70
2018-11-06T13:35:23.258Z,14.80
2018-11-06T13:37:50.816Z,14.80
2018-11-06T13:40:18.275Z,14.80
2018-11-06T13:42:46.482Z,14.70
2018-11-06T13:45:17.958Z,14.80
2018-11-06T13:47:45.337Z,14.80
2018-11-06T13:50:12.796Z,14.70
2018-11-06T13:52:40.336Z,14.70
2018-11-06T13:55:10.816Z,14.70
2018-11-06T13:57:47.828Z,14.60
2018-11-06T14:00:19.898Z,14.50
2018-11-06T14:02:47.537Z,14.50
2018-11-06T14:05:15.440Z,14.40
2018-11-06T14:07:42.981Z,14.40
2018-11-06T14:10:10.495Z,14.30
2018-11-06T14:12:38.118Z,14.30
2018-11-06T14:15:05.913Z,14.20
2018-11-06T14:17:33.373Z,14.20
2018-11-06T14:20:00.832Z,14.00
2018-11-06T14:22:28.511Z,14.00
2018-11-06T14:24:56.024Z,13.90
2018-11-06T14:27:23.529Z,13.90
2018-11-06T14:29:51.242Z,13.80
2018-11-06T14:32:19.016Z,13.70
2018-11-06T14:34:47.100Z,13.70
2018-11-06T14:37:14.604Z,13.70
2018-11-06T14:39:42.057Z,13.60
2018-11-06T14:42:10.760Z,13.50
2018-11-06T14:44:38.257Z,13.50
2018-11-06T14:47:05.782Z,13.50
2018-11-06T14:49:33.748Z,13.50
2018-11-06T14:52:01.239Z,13.40
2018-11-06T14:54:28.660Z,13.40
2018-11-06T14:56:56.156Z,13.40
2018-11-06T14:59:23.636Z,13.30
2018-11-06T15:01:51.157Z,13.30
2018-11-06T15:04:18.639Z,13.30
2018-11-06T15:06:46.130Z,13.20
2018-11-06T15:09:14.254Z,13.10
2018-11-06T15:11:43.165Z,13.20
2018-11-06T15:14:10.715Z,13.20
2018-11-06T15:16:38.180Z,13.10
2018-11-06T15:19:05.721Z,13.10
2018-11-06T15:21:33.208Z,13.10
2018-11-06T15:24:00.670Z,13.00
2018-11-06T15:26:28.255Z,12.90
2018-11-06T15:28:55.677Z,12.90
2018-11-06T15:31:23.215Z,12.80
2018-11-06T15:33:50.780Z,12.80
2018-11-06T15:36:18.352Z,12.70
2018-11-06T15:38:46.195Z,12.70
2018-11-06T15:41:16.775Z,12.60
2018-11-06T15:43:44.119Z,12.60
2018-11-06T15:46:11.595Z,12.60
2018-11-06T15:48:39.078Z,12.50
2018-11-06T15:51:07.988Z,12.60
2018-11-06T15:53:35.525Z,12.40
2018-11-06T15:56:03.050Z,12.40
2018-11-06T15:58:30.476Z,12.40
2018-11-06T16:00:57.970Z,12.40
2018-11-06T16:03:30.255Z,12.30
2018-11-06T16:05:57.730Z,12.30
2018-11-06T16:08:25.325Z,12.20
2018-11-06T16:10:52.616Z,12.20
2018-11-06T16:13:20.091Z,12.00
2018-11-06T16:15:47.635Z,12.00
2018-11-06T16:18:15.100Z,12.00
2018-11-06T16:20:42.590Z,12.00
2018-11-06T16:23:09.971Z,12.00
2018-11-06T16:25:37.431Z,12.00
2018-11-06T16:28:05.383Z,11.80
2018-11-06T16:30:32.890Z,11.90
2018-11-06T16:33:00.402Z,11.90
2018-11-06T16:35:27.903Z,11.80
2018-11-06T16:37:55.412Z,11.70
2018-11-06T16:40:22.881Z,11.80
2018-11-06T16:42:50.500Z,11.80
2018-11-06T16:45:21.091Z,11.70
2018-11-06T16:47:49.444Z,11.70
2018-11-06T16:50:23.642Z,11.70
2018-11-06T16:52:51.141Z,11.60
2018-11-06T16:58:16.636Z,11.60
2018-11-06T17:00:44.202Z,11.50
2018-11-06T17:03:11.571Z,11.50
2018-11-06T17:05:39.837Z,11.50
2018-11-06T17:08:07.308Z,11.40
2018-11-06T17:10:34.760Z,11.50
2018-11-06T17:13:02.191Z,11.40
2018-11-06T17:15:29.768Z,11.40
2018-11-06T17:17:57.235Z,11.30
2018-11-06T17:20:24.750Z,11.30
2018-11-06T17:22:52.285Z,11.20
2018-11-06T17:25:21.088Z,11.20
2018-11-06T17:27:48.534Z,11.20
2018-11-06T17:30:17.034Z,11.10
2018-11-06T17:32:44.697Z,11.00
2018-11-06T17:35:13.749Z,11.00
2018-11-06T17:37:41.581Z,11.10
2018-11-06T17:40:11.416Z,11.00
2018-11-06T17:42:39.574Z,10.90
2018-11-06T17:45:11.720Z,10.90
2018-11-06T17:47:43.245Z,10.90
2018-11-06T17:50:11.951Z,10.80
2018-11-06T17:52:39.434Z,10.80
2018-11-06T17:55:08.505Z,10.80
2018-11-06T17:57:36.604Z,10.70
2018-11-06T18:00:06.145Z,10.70
2018-11-06T18:02:33.594Z,10.60
2018-11-06T18:05:01.040Z,10.50
2018-11-06T18:07:30.719Z,10.40
2018-11-06T18:09:58.160Z,10.40
2018-11-06T18:12:25.939Z,10.30
2018-11-06T18:14:53.387Z,10.20
2018-11-06T18:17:21.546Z,10.30
2018-11-06T18:19:49.145Z,10.20
2018-11-06T18:22:16.679Z,10.10
2018-11-06T18:24:44.132Z,10.20
2018-11-06T18:27:11.640Z,10.10
2018-11-06T18:29:39.153Z,10.10
2018-11-06T18:32:06.840Z,10.00
2018-11-06T18:34:34.390Z,10.00
2018-11-06T18:37:02.016Z,10.10
2018-11-06T18:39:33.361Z,10.10
2018-11-06T18:42:00.915Z,10.10
2018-11-06T18:44:28.385Z,10.00
2018-11-06T18:46:55.889Z,10.00
2018-11-06T18:49:23.457Z,10.00
2018-11-06T18:51:51.042Z,9.90
2018-11-06T18:54:18.488Z,10.00
2018-11-06T18:56:45.998Z,9.80
2018-11-06T18:59:13.459Z,10.00
2018-11-06T19:01:41.052Z,10.00
2018-11-06T19:04:08.559Z,9.90
2018-11-06T19:06:40.059Z,9.90
2018-11-06T19:09:08.543Z,9.90
2018-11-06T19:11:36.124Z,9.80
2018-11-06T19:14:03.667Z,9.90
2018-11-06T19:16:31.197Z,9.90
2018-11-06T19:18:58.627Z,9.90
2018-11-06T19:21:26.099Z,9.90
2018-11-06T19:23:54.770Z,9.80
2018-11-06T19:26:23.287Z,9.80
2018-11-06T19:28:50.744Z,9.90
2018-11-06T19:31:18.227Z,9.90
2018-11-06T19:33:45.948Z,9.80
2018-11-06T19:36:13.431Z,9.90
2018-11-06T19:38:41.378Z,9.80
2018-11-06T19:41:09.153Z,9.80
2018-11-06T19:43:37.276Z,9.80
2018-11-06T19:46:06.807Z,10.00
2018-11-06T19:51:57.885Z,10.00
2018-11-06T19:54:25.417Z,10.10
2018-11-06T19:56:53.044Z,10.00
2018-11-06T19:59:22.079Z,10.10
2018-11-06T20:01:49.548Z,10.00
2018-11-06T20:04:17.173Z,9.90
2018-11-06T20:06:44.629Z,9.90
2018-11-06T20:09:12.211Z,9.90
2018-11-06T20:11:39.878Z,10.00
2018-11-06T20:14:07.992Z,10.00
2018-11-06T20:16:35.440Z,9.90
2018-11-06T20:19:03.008Z,10.00
2018-11-06T20:21:30.553Z,10.00
2018-11-06T20:23:58.102Z,10.00
2018-11-06T20:26:25.723Z,9.90
2018-11-06T20:28:53.191Z,9.90
2018-11-06T20:31:21.243Z,9.90
2018-11-06T20:33:48.822Z,9.80
2018-11-06T20:36:16.263Z,9.80
2018-11-06T20:38:43.739Z,9.90
2018-11-06T20:41:11.300Z,9.80
2018-11-06T20:43:38.747Z,9.90
2018-11-06T20:46:06.277Z,9.90
2018-11-06T20:48:33.767Z,9.90
2018-11-06T20:51:01.181Z,9.90
2018-11-06T20:53:28.704Z,9.90
2018-11-06T20:55:56.143Z,9.90
2018-11-06T20:58:23.563Z,9.90
2018-11-06T21:00:51.035Z,9.90
2018-11-06T21:03:18.521Z,9.70
2018-11-06T21:05:46.041Z,9.70
2018-11-06T21:08:13.470Z,9.60
2018-11-06T21:10:40.904Z,9.70
2018-11-06T21:13:08.390Z,9.80
2018-11-06T21:15:35.820Z,9.70
2018-11-06T21:18:03.386Z,9.80
2018-11-06T21:20:31.126Z,9.90
2018-11-06T21:22:58.578Z,9.80
2018-11-06T21:25:26.185Z,9.80
2018-11-06T21:27:53.504Z,9.80
2018-11-06T21:30:21.347Z,9.90
2018-11-06T21:32:50.755Z,9.70
2018-11-06T21:35:18.276Z,9.70
2018-11-06T21:37:45.731Z,9.70
2018-11-06T21:40:16.125Z,9.80
2018-11-06T21:42:44.395Z,9.80
2018-11-06T21:45:12.772Z,9.80
2018-11-06T21:47:41.660Z,9.80
2018-11-06T21:50:10.452Z,9.80
2018-11-06T21:52:39.159Z,9.80
2018-11-06T21:55:07.573Z,9.90
2018-11-06T21:57:35.050Z,9.80
2018-11-06T22:00:02.631Z,9.70
2018-11-06T22:02:30.202Z,9.60
2018-11-06T22:04:57.655Z,9.70
2018-11-06T22:07:25.488Z,9.70
2018-11-06T22:09:54.848Z,9.70
2018-11-06T22:12:25.420Z,9.60
2018-11-06T22:14:54.501Z,9.70
2018-11-06T22:17:21.952Z,9.70
2018-11-06T22:19:49.443Z,9.70
2018-11-06T22:22:18.294Z,9.70
2018-11-06T22:24:46.173Z,9.70
2018-11-06T22:27:14.513Z,9.60
2018-11-06T22:29:42.864Z,9.60
2018-11-06T22:32:10.726Z,9.60
2018-11-06T22:34:38.233Z,9.50
2018-11-06T22:37:05.780Z,9.50
2018-11-06T22:39:33.245Z,9.50
2018-11-06T22:42:00.931Z,9.40
2018-11-06T22:44:28.402Z,9.50
2018-11-06T22:46:55.959Z,9.50
2018-11-06T22:49:23.531Z,9.50
2018-11-06T22:51:51.054Z,9.40
2018-11-06T22:54:19.533Z,9.30
2018-11-06T22:56:47.123Z,9.40
2018-11-06T22:59:14.620Z,9.30
2018-11-06T23:01:42.101Z,9.30
2018-11-06T23:04:09.809Z,9.20
2018-11-06T23:06:37.460Z,9.20
2018-11-06T23:09:07.861Z,9.20
2018-11-06T23:11:35.477Z,9.20
2018-11-06T23:14:03.160Z,9.10
2018-11-06T23:16:30.879Z,9.10
2018-11-06T23:18:58.354Z,9.20
2018-11-06T23:21:25.856Z,9.20
2018-11-06T23:23:53.312Z,9.10
2018-11-06T23:26:21.018Z,9.00
2018-11-06T23:28:48.431Z,9.10
2018-11-06T23:31:16.052Z,9.00
2018-11-06T23:33:43.975Z,9.00
2018-11-06T23:36:12.182Z,9.10
2018-11-06T23:38:39.677Z,8.90
2018-11-06T23:41:07.285Z,9.00
2018-11-06T23:43:35.180Z,9.00
2018-11-06T23:46:02.907Z,8.90
2018-11-06T23:48:30.360Z,8.90
2018-11-06T23:50:57.994Z,9.00
2018-11-06T23:53:25.768Z,9.00
2018-11-06T23:55:53.203Z,8.90
2018-11-06T23:58:20.637Z,8.90
